sensor_id;sensor_type;location;lat;lon;timestamp;P1;durP1;ratioP1;P2;durP2;ratioP2
4096;SDS011;2062;50.694;7.246;2023-08-01T00:00:36;4.33;;;0.50;;
4096;SDS011;2062;50.694;7.246;2023-08-01T00:03:03;3.28;;;0.40;;
4096;SDS011;2062;50.694;7.246;2023-08-01T00:05:30;2.30;;;0.47;;
4096;SDS011;2062;50.694;7.246;2023-08-01T00:07:58;2.30;;;0.40;;
4096;SDS011;2062;50.694;7.246;2023-08-01T00:10:27;2.40;;;0.57;;
4096;SDS011;2062;50.694;7.246;2023-08-01T00:12:54;3.57;;;0.60;;
4096;SDS011;2062;50.694;7.246;2023-08-01T00:15:21;3.08;;;0.47;;
4096;SDS011;2062;50.694;7.246;2023-08-01T00:17:47;2.08;;;0.38;;
4096;SDS011;2062;50.694;7.246;2023-08-01T00:20:14;3.22;;;0.50;;
4096;SDS011;2062;50.694;7.246;2023-08-01T00:22:41;2.45;;;0.50;;
4096;SDS011;2062;50.694;7.246;2023-08-01T00:25:09;2.57;;;0.40;;
4096;SDS011;2062;50.694;7.246;2023-08-01T00:27:36;2.33;;;0.50;;
4096;SDS011;2062;50.694;7.246;2023-08-01T00:30:03;2.38;;;0.50;;
4096;SDS011;2062;50.694;7.246;2023-08-01T00:32:31;3.20;;;0.45;;
4096;SDS011;2062;50.694;7.246;2023-08-01T00:34:58;2.03;;;0.50;;
4096;SDS011;2062;50.694;7.246;2023-08-01T00:37:24;2.43;;;0.40;;
4096;SDS011;2062;50.694;7.246;2023-08-01T00:39:51;1.75;;;0.30;;
4096;SDS011;2062;50.694;7.246;2023-08-01T00:42:19;2.88;;;0.50;;
4096;SDS011;2062;50.694;7.246;2023-08-01T00:44:46;3.53;;;0.30;;
4096;SDS011;2062;50.694;7.246;2023-08-01T00:47:14;2.55;;;0.50;;
4096;SDS011;2062;50.694;7.246;2023-08-01T00:49:41;2.43;;;0.50;;
4096;SDS011;2062;50.694;7.246;2023-08-01T00:52:08;2.10;;;0.38;;
4096;SDS011;2062;50.694;7.246;2023-08-01T00:54:36;2.38;;;0.52;;
4096;SDS011;2062;50.694;7.246;2023-08-01T00:57:03;2.20;;;0.40;;
4096;SDS011;2062;50.694;7.246;2023-08-01T00:59:31;2.90;;;0.60;;
4096;SDS011;2062;50.694;7.246;2023-08-01T01:01:59;2.30;;;0.50;;
4096;SDS011;2062;50.694;7.246;2023-08-01T01:04:26;3.03;;;0.45;;
4096;SDS011;2062;50.694;7.246;2023-08-01T01:06:57;2.38;;;0.47;;
4096;SDS011;2062;50.694;7.246;2023-08-01T01:09:28;2.00;;;0.35;;
4096;SDS011;2062;50.694;7.246;2023-08-01T01:11:56;3.17;;;0.70;;
4096;SDS011;2062;50.694;7.246;2023-08-01T01:14:23;3.20;;;0.50;;
4096;SDS011;2062;50.694;7.246;2023-08-01T01:16:52;2.50;;;0.45;;
4096;SDS011;2062;50.694;7.246;2023-08-01T01:19:18;3.15;;;0.50;;
4096;SDS011;2062;50.694;7.246;2023-08-01T01:21:46;2.05;;;0.43;;
4096;SDS011;2062;50.694;7.246;2023-08-01T01:24:14;2.85;;;0.43;;
4096;SDS011;2062;50.694;7.246;2023-08-01T01:26:42;4.17;;;0.60;;
4096;SDS011;2062;50.694;7.246;2023-08-01T01:29:09;2.33;;;0.50;;
4096;SDS011;2062;50.694;7.246;2023-08-01T01:31:37;2.70;;;0.60;;
4096;SDS011;2062;50.694;7.246;2023-08-01T01:34:05;3.55;;;0.43;;
4096;SDS011;2062;50.694;7.246;2023-08-01T01:36:32;2.15;;;0.47;;
4096;SDS011;2062;50.694;7.246;2023-08-01T01:39:00;2.17;;;0.47;;
4096;SDS011;2062;50.694;7.246;2023-08-01T01:41:27;2.97;;;0.50;;
4096;SDS011;2062;50.694;7.246;2023-08-01T01:43:54;2.75;;;0.40;;
4096;SDS011;2062;50.694;7.246;2023-08-01T01:46:21;2.35;;;0.40;;
4096;SDS011;2062;50.694;7.246;2023-08-01T01:48:47;3.28;;;0.40;;
4096;SDS011;2062;50.694;7.246;2023-08-01T01:51:14;2.27;;;0.40;;
4096;SDS011;2062;50.694;7.246;2023-08-01T01:53:41;2.10;;;0.40;;
4096;SDS011;2062;50.694;7.246;2023-08-01T01:56:09;2.17;;;0.50;;
4096;SDS011;2062;50.694;7.246;2023-08-01T01:58:36;1.90;;;0.30;;
4096;SDS011;2062;50.694;7.246;2023-08-01T02:01:03;2.40;;;0.47;;
4096;SDS011;2062;50.694;7.246;2023-08-01T02:03:29;1.60;;;0.40;;
4096;SDS011;2062;50.694;7.246;2023-08-01T02:05:56;2.17;;;0.40;;
4096;SDS011;2062;50.694;7.246;2023-08-01T02:08:23;3.47;;;0.60;;
4096;SDS011;2062;50.694;7.246;2023-08-01T02:10:50;3.10;;;0.40;;
4096;SDS011;2062;50.694;7.246;2023-08-01T02:13:18;2.10;;;0.40;;
4096;SDS011;2062;50.694;7.246;2023-08-01T02:15:44;1.53;;;0.30;;
4096;SDS011;2062;50.694;7.246;2023-08-01T02:18:11;1.85;;;0.35;;
4096;SDS011;2062;50.694;7.246;2023-08-01T02:20:38;3.15;;;0.50;;
4096;SDS011;2062;50.694;7.246;2023-08-01T02:23:05;2.75;;;0.40;;
4096;SDS011;2062;50.694;7.246;2023-08-01T02:25:32;2.40;;;0.50;;
4096;SDS011;2062;50.694;7.246;2023-08-01T02:27:58;2.00;;;0.50;;
4096;SDS011;2062;50.694;7.246;2023-08-01T02:30:26;2.20;;;0.50;;
4096;SDS011;2062;50.694;7.246;2023-08-01T02:32:54;2.03;;;0.40;;
4096;SDS011;2062;50.694;7.246;2023-08-01T02:35:21;2.20;;;0.47;;
4096;SDS011;2062;50.694;7.246;2023-08-01T02:37:47;1.92;;;0.40;;
4096;SDS011;2062;50.694;7.246;2023-08-01T02:40:14;1.97;;;0.40;;
4096;SDS011;2062;50.694;7.246;2023-08-01T02:42:41;1.35;;;0.25;;
4096;SDS011;2062;50.694;7.246;2023-08-01T02:45:08;1.42;;;0.30;;
4096;SDS011;2062;50.694;7.246;2023-08-01T02:47:36;1.65;;;0.30;;
4096;SDS011;2062;50.694;7.246;2023-08-01T02:50:03;2.17;;;0.45;;
4096;SDS011;2062;50.694;7.246;2023-08-01T02:52:31;1.93;;;0.40;;
4096;SDS011;2062;50.694;7.246;2023-08-01T02:54:58;2.63;;;0.50;;
4096;SDS011;2062;50.694;7.246;2023-08-01T02:57:25;2.10;;;0.50;;
4096;SDS011;2062;50.694;7.246;2023-08-01T02:59:51;2.40;;;0.60;;
4096;SDS011;2062;50.694;7.246;2023-08-01T03:02:18;3.30;;;0.60;;
4096;SDS011;2062;50.694;7.246;2023-08-01T03:04:46;2.50;;;0.50;;
4096;SDS011;2062;50.694;7.246;2023-08-01T03:07:13;2.95;;;0.70;;
4096;SDS011;2062;50.694;7.246;2023-08-01T03:09:40;3.63;;;0.70;;
4096;SDS011;2062;50.694;7.246;2023-08-01T03:12:08;2.60;;;0.60;;
4096;SDS011;2062;50.694;7.246;2023-08-01T03:14:34;5.00;;;0.80;;
4096;SDS011;2062;50.694;7.246;2023-08-01T03:17:01;3.10;;;0.70;;
4096;SDS011;2062;50.694;7.246;2023-08-01T03:19:28;3.95;;;0.80;;
4096;SDS011;2062;50.694;7.246;2023-08-01T03:21:56;4.45;;;0.90;;
4096;SDS011;2062;50.694;7.246;2023-08-01T03:24:23;2.90;;;0.70;;
4096;SDS011;2062;50.694;7.246;2023-08-01T03:26:50;3.10;;;0.80;;
4096;SDS011;2062;50.694;7.246;2023-08-01T03:29:17;2.90;;;0.60;;
4096;SDS011;2062;50.694;7.246;2023-08-01T03:31:43;2.67;;;0.50;;
4096;SDS011;2062;50.694;7.246;2023-08-01T03:34:10;2.92;;;0.70;;
4096;SDS011;2062;50.694;7.246;2023-08-01T03:36:37;3.75;;;0.70;;
4096;SDS011;2062;50.694;7.246;2023-08-01T03:39:05;2.55;;;0.60;;
4096;SDS011;2062;50.694;7.246;2023-08-01T03:41:35;3.73;;;0.80;;
4096;SDS011;2062;50.694;7.246;2023-08-01T03:44:02;2.85;;;0.68;;
4096;SDS011;2062;50.694;7.246;2023-08-01T03:46:29;2.60;;;0.55;;
4096;SDS011;2062;50.694;7.246;2023-08-01T03:48:55;2.75;;;0.70;;
4096;SDS011;2062;50.694;7.246;2023-08-01T03:51:22;4.43;;;0.98;;
4096;SDS011;2062;50.694;7.246;2023-08-01T03:53:49;3.67;;;0.90;;
4096;SDS011;2062;50.694;7.246;2023-08-01T03:56:17;3.20;;;0.80;;
4096;SDS011;2062;50.694;7.246;2023-08-01T03:58:44;3.63;;;0.70;;
4096;SDS011;2062;50.694;7.246;2023-08-01T04:01:11;4.45;;;0.95;;
4096;SDS011;2062;50.694;7.246;2023-08-01T04:03:38;5.03;;;1.00;;
4096;SDS011;2062;50.694;7.246;2023-08-01T04:06:05;3.30;;;0.80;;
4096;SDS011;2062;50.694;7.246;2023-08-01T04:08:31;4.30;;;1.02;;
4096;SDS011;2062;50.694;7.246;2023-08-01T04:10:58;4.75;;;1.02;;
4096;SDS011;2062;50.694;7.246;2023-08-01T04:13:26;3.25;;;0.90;;
4096;SDS011;2062;50.694;7.246;2023-08-01T04:15:53;3.63;;;1.10;;
4096;SDS011;2062;50.694;7.246;2023-08-01T04:18:20;4.60;;;1.00;;
4096;SDS011;2062;50.694;7.246;2023-08-01T04:20:47;3.65;;;1.20;;
4096;SDS011;2062;50.694;7.246;2023-08-01T04:23:13;3.58;;;1.05;;
4096;SDS011;2062;50.694;7.246;2023-08-01T04:25:40;4.63;;;1.00;;
4096;SDS011;2062;50.694;7.246;2023-08-01T04:28:08;6.20;;;1.10;;
4096;SDS011;2062;50.694;7.246;2023-08-01T04:30:36;3.53;;;0.80;;
4096;SDS011;2062;50.694;7.246;2023-08-01T04:33:03;3.50;;;1.10;;
4096;SDS011;2062;50.694;7.246;2023-08-01T04:35:30;4.15;;;1.15;;
4096;SDS011;2062;50.694;7.246;2023-08-01T04:37:57;3.55;;;1.05;;
4096;SDS011;2062;50.694;7.246;2023-08-01T04:40:24;4.22;;;1.10;;
4096;SDS011;2062;50.694;7.246;2023-08-01T04:42:50;3.57;;;1.20;;
4096;SDS011;2062;50.694;7.246;2023-08-01T04:45:17;3.40;;;1.10;;
4096;SDS011;2062;50.694;7.246;2023-08-01T04:47:45;5.85;;;1.30;;
4096;SDS011;2062;50.694;7.246;2023-08-01T04:50:12;4.72;;;1.40;;
4096;SDS011;2062;50.694;7.246;2023-08-01T04:52:39;4.20;;;1.40;;
4096;SDS011;2062;50.694;7.246;2023-08-01T04:55:06;4.97;;;1.50;;
4096;SDS011;2062;50.694;7.246;2023-08-01T04:57:33;4.20;;;1.35;;
4096;SDS011;2062;50.694;7.246;2023-08-01T05:00:00;5.15;;;1.35;;
4096;SDS011;2062;50.694;7.246;2023-08-01T05:02:27;5.82;;;2.08;;
4096;SDS011;2062;50.694;7.246;2023-08-01T05:04:55;5.00;;;1.65;;
4096;SDS011;2062;50.694;7.246;2023-08-01T05:07:22;4.93;;;1.90;;
4096;SDS011;2062;50.694;7.246;2023-08-01T05:09:49;5.97;;;2.03;;
4096;SDS011;2062;50.694;7.246;2023-08-01T05:12:15;6.65;;;2.08;;
4096;SDS011;2062;50.694;7.246;2023-08-01T05:14:42;7.45;;;2.10;;
4096;SDS011;2062;50.694;7.246;2023-08-01T05:17:09;7.57;;;2.30;;
4096;SDS011;2062;50.694;7.246;2023-08-01T05:19:36;5.17;;;2.10;;
4096;SDS011;2062;50.694;7.246;2023-08-01T05:22:04;8.55;;;2.30;;
4096;SDS011;2062;50.694;7.246;2023-08-01T05:24:31;7.20;;;2.00;;
4096;SDS011;2062;50.694;7.246;2023-08-01T05:26:58;5.70;;;1.83;;
4096;SDS011;2062;50.694;7.246;2023-08-01T05:29:24;6.78;;;2.08;;
4096;SDS011;2062;50.694;7.246;2023-08-01T05:31:51;5.80;;;1.90;;
4096;SDS011;2062;50.694;7.246;2023-08-01T05:34:18;5.82;;;1.77;;
4096;SDS011;2062;50.694;7.246;2023-08-01T05:36:45;5.88;;;2.08;;
4096;SDS011;2062;50.694;7.246;2023-08-01T05:39:13;5.68;;;2.03;;
4096;SDS011;2062;50.694;7.246;2023-08-01T05:41:40;6.45;;;2.17;;
4096;SDS011;2062;50.694;7.246;2023-08-01T05:44:06;6.33;;;2.20;;
4096;SDS011;2062;50.694;7.246;2023-08-01T05:46:33;6.10;;;1.95;;
4096;SDS011;2062;50.694;7.246;2023-08-01T05:49:00;6.85;;;2.25;;
4096;SDS011;2062;50.694;7.246;2023-08-01T05:51:27;5.75;;;2.10;;
4096;SDS011;2062;50.694;7.246;2023-08-01T05:53:54;5.47;;;2.30;;
4096;SDS011;2062;50.694;7.246;2023-08-01T05:56:22;7.27;;;2.13;;
4096;SDS011;2062;50.694;7.246;2023-08-01T05:58:49;7.82;;;2.50;;
4096;SDS011;2062;50.694;7.246;2023-08-01T06:01:16;5.25;;;2.22;;
4096;SDS011;2062;50.694;7.246;2023-08-01T06:03:43;7.30;;;2.40;;
4096;SDS011;2062;50.694;7.246;2023-08-01T06:06:09;5.40;;;2.20;;
4096;SDS011;2062;50.694;7.246;2023-08-01T06:08:36;7.70;;;2.10;;
4096;SDS011;2062;50.694;7.246;2023-08-01T06:11:03;6.55;;;2.10;;
4096;SDS011;2062;50.694;7.246;2023-08-01T06:13:31;5.53;;;2.20;;
4096;SDS011;2062;50.694;7.246;2023-08-01T06:15:58;5.72;;;2.08;;
4096;SDS011;2062;50.694;7.246;2023-08-01T06:18:25;6.10;;;2.50;;
4096;SDS011;2062;50.694;7.246;2023-08-01T06:20:51;7.50;;;2.43;;
4096;SDS011;2062;50.694;7.246;2023-08-01T06:23:18;5.85;;;2.38;;
4096;SDS011;2062;50.694;7.246;2023-08-01T06:25:45;7.85;;;2.67;;
4096;SDS011;2062;50.694;7.246;2023-08-01T06:28:12;6.30;;;2.78;;
4096;SDS011;2062;50.694;7.246;2023-08-01T06:30:40;5.88;;;2.50;;
4096;SDS011;2062;50.694;7.246;2023-08-01T06:33:07;6.23;;;2.17;;
4096;SDS011;2062;50.694;7.246;2023-08-01T06:35:33;6.22;;;2.40;;
4096;SDS011;2062;50.694;7.246;2023-08-01T06:38:00;6.03;;;2.30;;
4096;SDS011;2062;50.694;7.246;2023-08-01T06:40:27;5.57;;;2.40;;
4096;SDS011;2062;50.694;7.246;2023-08-01T06:42:54;9.50;;;2.60;;
4096;SDS011;2062;50.694;7.246;2023-08-01T06:45:20;10.40;;;2.87;;
4096;SDS011;2062;50.694;7.246;2023-08-01T06:47:48;5.63;;;2.17;;
4096;SDS011;2062;50.694;7.246;2023-08-01T06:50:15;5.75;;;2.45;;
4096;SDS011;2062;50.694;7.246;2023-08-01T06:52:42;5.93;;;2.10;;
4096;SDS011;2062;50.694;7.246;2023-08-01T06:55:09;5.72;;;2.30;;
4096;SDS011;2062;50.694;7.246;2023-08-01T06:57:36;5.70;;;2.10;;
4096;SDS011;2062;50.694;7.246;2023-08-01T07:00:03;5.53;;;2.20;;
4096;SDS011;2062;50.694;7.246;2023-08-01T07:02:30;8.75;;;2.42;;
4096;SDS011;2062;50.694;7.246;2023-08-01T07:04:58;7.20;;;2.20;;
4096;SDS011;2062;50.694;7.246;2023-08-01T07:07:25;9.35;;;2.38;;
4096;SDS011;2062;50.694;7.246;2023-08-01T07:09:52;6.00;;;2.20;;
4096;SDS011;2062;50.694;7.246;2023-08-01T07:12:19;8.30;;;2.15;;
4096;SDS011;2062;50.694;7.246;2023-08-01T07:14:45;7.60;;;2.30;;
4096;SDS011;2062;50.694;7.246;2023-08-01T07:17:12;6.28;;;2.22;;
4096;SDS011;2062;50.694;7.246;2023-08-01T07:19:39;8.35;;;2.45;;
4096;SDS011;2062;50.694;7.246;2023-08-01T07:22:07;5.03;;;1.93;;
4096;SDS011;2062;50.694;7.246;2023-08-01T07:24:34;5.63;;;2.20;;
4096;SDS011;2062;50.694;7.246;2023-08-01T07:27:01;6.18;;;2.38;;
4096;SDS011;2062;50.694;7.246;2023-08-01T07:29:28;6.95;;;2.38;;
4096;SDS011;2062;50.694;7.246;2023-08-01T07:31:54;8.15;;;2.58;;
4096;SDS011;2062;50.694;7.246;2023-08-01T07:34:21;5.20;;;2.10;;
4096;SDS011;2062;50.694;7.246;2023-08-01T07:36:48;7.53;;;2.58;;
4096;SDS011;2062;50.694;7.246;2023-08-01T07:39:16;5.60;;;2.33;;
4096;SDS011;2062;50.694;7.246;2023-08-01T07:41:43;6.35;;;2.60;;
4096;SDS011;2062;50.694;7.246;2023-08-01T07:44:10;9.05;;;2.70;;
4096;SDS011;2062;50.694;7.246;2023-08-01T07:46:37;7.50;;;2.67;;
4096;SDS011;2062;50.694;7.246;2023-08-01T07:49:04;7.25;;;2.40;;
4096;SDS011;2062;50.694;7.246;2023-08-01T07:51:30;5.05;;;2.10;;
4096;SDS011;2062;50.694;7.246;2023-08-01T07:53:58;6.90;;;2.50;;
4096;SDS011;2062;50.694;7.246;2023-08-01T07:56:27;6.03;;;2.60;;
4096;SDS011;2062;50.694;7.246;2023-08-01T07:58:53;6.40;;;2.03;;
4096;SDS011;2062;50.694;7.246;2023-08-01T08:01:20;6.75;;;2.40;;
4096;SDS011;2062;50.694;7.246;2023-08-01T08:03:47;7.03;;;2.67;;
4096;SDS011;2062;50.694;7.246;2023-08-01T08:06:14;5.50;;;2.30;;
4096;SDS011;2062;50.694;7.246;2023-08-01T08:08:41;5.93;;;2.38;;
4096;SDS011;2062;50.694;7.246;2023-08-01T08:11:07;7.00;;;2.40;;
4096;SDS011;2062;50.694;7.246;2023-08-01T08:13:36;5.55;;;2.38;;
4096;SDS011;2062;50.694;7.246;2023-08-01T08:16:02;6.40;;;2.40;;
4096;SDS011;2062;50.694;7.246;2023-08-01T08:18:30;7.85;;;2.50;;
4096;SDS011;2062;50.694;7.246;2023-08-01T08:20:57;7.80;;;2.40;;
4096;SDS011;2062;50.694;7.246;2023-08-01T08:23:24;5.73;;;2.40;;
4096;SDS011;2062;50.694;7.246;2023-08-01T08:25:51;5.60;;;2.05;;
4096;SDS011;2062;50.694;7.246;2023-08-01T08:28:26;6.05;;;2.50;;
4096;SDS011;2062;50.694;7.246;2023-08-01T08:30:55;6.88;;;2.33;;
4096;SDS011;2062;50.694;7.246;2023-08-01T08:33:22;8.18;;;2.45;;
4096;SDS011;2062;50.694;7.246;2023-08-01T08:35:49;7.60;;;2.80;;
4096;SDS011;2062;50.694;7.246;2023-08-01T08:38:16;5.95;;;2.60;;
4096;SDS011;2062;50.694;7.246;2023-08-01T08:40:46;7.03;;;2.72;;
4096;SDS011;2062;50.694;7.246;2023-08-01T08:43:18;6.25;;;2.60;;
4096;SDS011;2062;50.694;7.246;2023-08-01T08:45:45;9.13;;;2.67;;
4096;SDS011;2062;50.694;7.246;2023-08-01T08:48:17;7.13;;;2.70;;
4096;SDS011;2062;50.694;7.246;2023-08-01T08:50:44;5.93;;;2.50;;
4096;SDS011;2062;50.694;7.246;2023-08-01T08:53:12;7.45;;;2.90;;
4096;SDS011;2062;50.694;7.246;2023-08-01T08:55:40;7.90;;;2.97;;
4096;SDS011;2062;50.694;7.246;2023-08-01T08:58:08;9.15;;;3.10;;
4096;SDS011;2062;50.694;7.246;2023-08-01T09:00:35;6.67;;;2.87;;
4096;SDS011;2062;50.694;7.246;2023-08-01T09:03:02;7.72;;;2.85;;
4096;SDS011;2062;50.694;7.246;2023-08-01T09:05:33;7.70;;;3.20;;
4096;SDS011;2062;50.694;7.246;2023-08-01T09:08:04;8.38;;;3.08;;
4096;SDS011;2062;50.694;7.246;2023-08-01T09:10:38;9.20;;;3.35;;
4096;SDS011;2062;50.694;7.246;2023-08-01T09:13:04;10.47;;;3.30;;
4096;SDS011;2062;50.694;7.246;2023-08-01T09:15:34;7.30;;;2.58;;
4096;SDS011;2062;50.694;7.246;2023-08-01T09:18:05;7.82;;;2.97;;
4096;SDS011;2062;50.694;7.246;2023-08-01T09:20:40;7.72;;;2.85;;
4096;SDS011;2062;50.694;7.246;2023-08-01T09:23:08;7.90;;;2.90;;
4096;SDS011;2062;50.694;7.246;2023-08-01T09:25:36;7.77;;;2.60;;
4096;SDS011;2062;50.694;7.246;2023-08-01T09:28:03;5.32;;;2.28;;
4096;SDS011;2062;50.694;7.246;2023-08-01T09:30:45;6.53;;;2.70;;
4096;SDS011;2062;50.694;7.246;2023-08-01T09:33:12;8.50;;;2.60;;
4096;SDS011;2062;50.694;7.246;2023-08-01T09:35:41;7.38;;;2.75;;
4096;SDS011;2062;50.694;7.246;2023-08-01T09:38:09;6.53;;;2.43;;
4096;SDS011;2062;50.694;7.246;2023-08-01T09:40:36;6.93;;;2.65;;
4096;SDS011;2062;50.694;7.246;2023-08-01T09:43:03;8.38;;;2.42;;
4096;SDS011;2062;50.694;7.246;2023-08-01T09:45:30;5.85;;;2.50;;
4096;SDS011;2062;50.694;7.246;2023-08-01T09:47:59;6.32;;;2.22;;
4096;SDS011;2062;50.694;7.246;2023-08-01T09:50:26;7.70;;;2.10;;
4096;SDS011;2062;50.694;7.246;2023-08-01T09:52:54;7.18;;;2.30;;
4096;SDS011;2062;50.694;7.246;2023-08-01T09:55:23;4.85;;;2.10;;
4096;SDS011;2062;50.694;7.246;2023-08-01T09:57:53;5.47;;;2.10;;
4096;SDS011;2062;50.694;7.246;2023-08-01T10:00:21;6.88;;;2.10;;
4096;SDS011;2062;50.694;7.246;2023-08-01T10:02:48;5.40;;;2.10;;
4096;SDS011;2062;50.694;7.246;2023-08-01T10:05:18;6.20;;;2.03;;
4096;SDS011;2062;50.694;7.246;2023-08-01T10:07:46;6.05;;;2.08;;
4096;SDS011;2062;50.694;7.246;2023-08-01T10:10:16;7.78;;;2.20;;
4096;SDS011;2062;50.694;7.246;2023-08-01T10:12:45;5.32;;;1.75;;
4096;SDS011;2062;50.694;7.246;2023-08-01T10:15:13;4.30;;;1.73;;
4096;SDS011;2062;50.694;7.246;2023-08-01T10:17:41;6.60;;;1.90;;
4096;SDS011;2062;50.694;7.246;2023-08-01T10:20:08;5.28;;;1.90;;
4096;SDS011;2062;50.694;7.246;2023-08-01T10:22:36;5.85;;;2.03;;
4096;SDS011;2062;50.694;7.246;2023-08-01T10:25:04;4.93;;;1.70;;
4096;SDS011;2062;50.694;7.246;2023-08-01T10:27:34;7.10;;;2.17;;
4096;SDS011;2062;50.694;7.246;2023-08-01T10:30:02;6.40;;;2.10;;
4096;SDS011;2062;50.694;7.246;2023-08-01T10:32:31;6.65;;;2.30;;
4096;SDS011;2062;50.694;7.246;2023-08-01T10:34:59;7.57;;;2.10;;
4096;SDS011;2062;50.694;7.246;2023-08-01T10:37:26;4.63;;;2.10;;
4096;SDS011;2062;50.694;7.246;2023-08-01T10:39:56;5.40;;;1.60;;
4096;SDS011;2062;50.694;7.246;2023-08-01T10:42:24;4.80;;;1.70;;
4096;SDS011;2062;50.694;7.246;2023-08-01T10:44:52;6.22;;;1.98;;
4096;SDS011;2062;50.694;7.246;2023-08-01T10:47:24;7.47;;;1.92;;
4096;SDS011;2062;50.694;7.246;2023-08-01T10:49:52;7.10;;;2.13;;
4096;SDS011;2062;50.694;7.246;2023-08-01T10:52:19;5.03;;;2.00;;
4096;SDS011;2062;50.694;7.246;2023-08-01T10:54:55;7.10;;;1.80;;
4096;SDS011;2062;50.694;7.246;2023-08-01T10:57:22;7.00;;;1.83;;
4096;SDS011;2062;50.694;7.246;2023-08-01T10:59:51;4.63;;;1.70;;
4096;SDS011;2062;50.694;7.246;2023-08-01T11:02:22;6.10;;;1.80;;
4096;SDS011;2062;50.694;7.246;2023-08-01T11:04:56;6.47;;;1.70;;
4096;SDS011;2062;50.694;7.246;2023-08-01T11:07:24;4.60;;;1.50;;
4096;SDS011;2062;50.694;7.246;2023-08-01T11:10:02;5.03;;;1.67;;
4096;SDS011;2062;50.694;7.246;2023-08-01T11:12:33;5.80;;;2.17;;
4096;SDS011;2062;50.694;7.246;2023-08-01T11:15:03;5.13;;;1.88;;
4096;SDS011;2062;50.694;7.246;2023-08-01T11:17:33;5.50;;;1.73;;
4096;SDS011;2062;50.694;7.246;2023-08-01T11:20:00;5.03;;;1.75;;
4096;SDS011;2062;50.694;7.246;2023-08-01T11:22:29;5.38;;;2.00;;
4096;SDS011;2062;50.694;7.246;2023-08-01T11:24:56;7.47;;;1.90;;
4096;SDS011;2062;50.694;7.246;2023-08-01T11:27:23;5.25;;;1.80;;
4096;SDS011;2062;50.694;7.246;2023-08-01T11:29:50;6.73;;;1.63;;
4096;SDS011;2062;50.694;7.246;2023-08-01T11:32:19;8.10;;;1.52;;
4096;SDS011;2062;50.694;7.246;2023-08-01T11:34:46;5.32;;;1.85;;
4096;SDS011;2062;50.694;7.246;2023-08-01T11:37:13;5.05;;;1.92;;
4096;SDS011;2062;50.694;7.246;2023-08-01T11:39:41;4.30;;;1.77;;
4096;SDS011;2062;50.694;7.246;2023-08-01T11:42:08;18.40;;;5.73;;
4096;SDS011;2062;50.694;7.246;2023-08-01T11:44:41;10.70;;;3.15;;
4096;SDS011;2062;50.694;7.246;2023-08-01T11:47:10;7.70;;;2.35;;
4096;SDS011;2062;50.694;7.246;2023-08-01T11:49:46;6.10;;;2.08;;
4096;SDS011;2062;50.694;7.246;2023-08-01T11:52:24;8.20;;;2.03;;
4096;SDS011;2062;50.694;7.246;2023-08-01T11:54:51;5.93;;;2.00;;
4096;SDS011;2062;50.694;7.246;2023-08-01T11:57:19;5.93;;;1.70;;
4096;SDS011;2062;50.694;7.246;2023-08-01T11:59:46;4.47;;;1.70;;
4096;SDS011;2062;50.694;7.246;2023-08-01T12:02:20;4.88;;;1.75;;
4096;SDS011;2062;50.694;7.246;2023-08-01T12:04:49;6.82;;;2.03;;
4096;SDS011;2062;50.694;7.246;2023-08-01T12:07:17;4.90;;;1.67;;
4096;SDS011;2062;50.694;7.246;2023-08-01T12:09:44;5.82;;;1.60;;
4096;SDS011;2062;50.694;7.246;2023-08-01T12:12:21;6.95;;;1.85;;
4096;SDS011;2062;50.694;7.246;2023-08-01T12:14:48;6.05;;;1.67;;
4096;SDS011;2062;50.694;7.246;2023-08-01T12:17:15;6.65;;;1.80;;
4096;SDS011;2062;50.694;7.246;2023-08-01T12:19:41;5.63;;;1.80;;
4096;SDS011;2062;50.694;7.246;2023-08-01T12:22:10;6.47;;;1.80;;
4096;SDS011;2062;50.694;7.246;2023-08-01T12:24:36;4.70;;;1.35;;
4096;SDS011;2062;50.694;7.246;2023-08-01T12:27:04;5.15;;;1.70;;
4096;SDS011;2062;50.694;7.246;2023-08-01T12:29:31;6.28;;;1.50;;
4096;SDS011;2062;50.694;7.246;2023-08-01T12:31:58;4.83;;;1.40;;
4096;SDS011;2062;50.694;7.246;2023-08-01T12:34:25;4.55;;;1.25;;
4096;SDS011;2062;50.694;7.246;2023-08-01T12:36:52;4.60;;;1.83;;
4096;SDS011;2062;50.694;7.246;2023-08-01T12:39:20;4.57;;;1.30;;
4096;SDS011;2062;50.694;7.246;2023-08-01T12:41:48;4.90;;;1.27;;
4096;SDS011;2062;50.694;7.246;2023-08-01T12:44:14;4.20;;;1.57;;
4096;SDS011;2062;50.694;7.246;2023-08-01T12:46:42;181.90;;;8.02;;
4096;SDS011;2062;50.694;7.246;2023-08-01T12:49:09;42.33;;;3.13;;
4096;SDS011;2062;50.694;7.246;2023-08-01T12:51:36;11.45;;;1.92;;
4096;SDS011;2062;50.694;7.246;2023-08-01T12:54:03;7.05;;;1.30;;
4096;SDS011;2062;50.694;7.246;2023-08-01T12:56:31;6.37;;;1.23;;
4096;SDS011;2062;50.694;7.246;2023-08-01T12:58:58;4.18;;;1.30;;
4096;SDS011;2062;50.694;7.246;2023-08-01T13:01:25;6.93;;;1.40;;
4096;SDS011;2062;50.694;7.246;2023-08-01T13:03:51;4.65;;;1.20;;
4096;SDS011;2062;50.694;7.246;2023-08-01T13:06:18;4.05;;;1.40;;
4096;SDS011;2062;50.694;7.246;2023-08-01T13:08:45;4.50;;;1.40;;
4096;SDS011;2062;50.694;7.246;2023-08-01T13:11:12;4.38;;;1.30;;
4096;SDS011;2062;50.694;7.246;2023-08-01T13:13:41;5.45;;;1.40;;
4096;SDS011;2062;50.694;7.246;2023-08-01T13:16:09;5.88;;;1.50;;
4096;SDS011;2062;50.694;7.246;2023-08-01T13:18:35;3.85;;;1.20;;
4096;SDS011;2062;50.694;7.246;2023-08-01T13:21:08;3.80;;;0.90;;
4096;SDS011;2062;50.694;7.246;2023-08-01T13:23:35;4.15;;;0.90;;
4096;SDS011;2062;50.694;7.246;2023-08-01T13:26:02;3.95;;;1.00;;
4096;SDS011;2062;50.694;7.246;2023-08-01T13:28:28;3.78;;;1.00;;
4096;SDS011;2062;50.694;7.246;2023-08-01T13:30:56;4.50;;;0.95;;
4096;SDS011;2062;50.694;7.246;2023-08-01T13:33:23;3.27;;;0.87;;
4096;SDS011;2062;50.694;7.246;2023-08-01T13:35:51;3.33;;;1.00;;
4096;SDS011;2062;50.694;7.246;2023-08-01T13:38:18;3.50;;;1.02;;
4096;SDS011;2062;50.694;7.246;2023-08-01T13:40:45;4.45;;;0.90;;
4096;SDS011;2062;50.694;7.246;2023-08-01T13:43:12;2.83;;;0.73;;
4096;SDS011;2062;50.694;7.246;2023-08-01T13:45:39;3.73;;;0.90;;
4096;SDS011;2062;50.694;7.246;2023-08-01T13:48:07;3.35;;;0.85;;
4096;SDS011;2062;50.694;7.246;2023-08-01T13:50:33;4.50;;;1.00;;
4096;SDS011;2062;50.694;7.246;2023-08-01T13:53:00;3.95;;;1.05;;
4096;SDS011;2062;50.694;7.246;2023-08-01T13:55:27;4.15;;;1.00;;
4096;SDS011;2062;50.694;7.246;2023-08-01T13:57:54;4.30;;;1.10;;
4096;SDS011;2062;50.694;7.246;2023-08-01T14:00:21;5.25;;;0.90;;
4096;SDS011;2062;50.694;7.246;2023-08-01T14:02:49;5.15;;;1.45;;
4096;SDS011;2062;50.694;7.246;2023-08-01T14:05:17;3.80;;;1.00;;
4096;SDS011;2062;50.694;7.246;2023-08-01T14:07:44;3.42;;;1.10;;
4096;SDS011;2062;50.694;7.246;2023-08-01T14:10:12;4.47;;;1.00;;
4096;SDS011;2062;50.694;7.246;2023-08-01T14:12:39;3.60;;;1.10;;
4096;SDS011;2062;50.694;7.246;2023-08-01T14:15:06;3.67;;;1.13;;
4096;SDS011;2062;50.694;7.246;2023-08-01T14:17:34;3.97;;;1.20;;
4096;SDS011;2062;50.694;7.246;2023-08-01T14:20:01;4.88;;;1.42;;
4096;SDS011;2062;50.694;7.246;2023-08-01T14:22:31;3.57;;;0.90;;
4096;SDS011;2062;50.694;7.246;2023-08-01T14:24:58;5.60;;;1.20;;
4096;SDS011;2062;50.694;7.246;2023-08-01T14:27:25;4.25;;;1.20;;
4096;SDS011;2062;50.694;7.246;2023-08-01T14:29:52;4.03;;;1.02;;
4096;SDS011;2062;50.694;7.246;2023-08-01T14:32:19;5.30;;;1.20;;
4096;SDS011;2062;50.694;7.246;2023-08-01T14:34:46;3.33;;;1.03;;
4096;SDS011;2062;50.694;7.246;2023-08-01T14:37:13;5.28;;;1.20;;
4096;SDS011;2062;50.694;7.246;2023-08-01T14:39:41;4.45;;;1.50;;
4096;SDS011;2062;50.694;7.246;2023-08-01T14:42:08;4.47;;;1.42;;
4096;SDS011;2062;50.694;7.246;2023-08-01T14:44:34;4.80;;;1.40;;
4096;SDS011;2062;50.694;7.246;2023-08-01T14:47:01;4.50;;;1.27;;
4096;SDS011;2062;50.694;7.246;2023-08-01T14:49:28;9.23;;;1.50;;
4096;SDS011;2062;50.694;7.246;2023-08-01T14:51:55;4.45;;;1.40;;
4096;SDS011;2062;50.694;7.246;2023-08-01T14:54:22;4.53;;;1.10;;
4096;SDS011;2062;50.694;7.246;2023-08-01T14:56:51;4.07;;;1.10;;
4096;SDS011;2062;50.694;7.246;2023-08-01T14:59:18;3.80;;;1.10;;
4096;SDS011;2062;50.694;7.246;2023-08-01T15:01:45;4.53;;;1.30;;
4096;SDS011;2062;50.694;7.246;2023-08-01T15:04:11;4.05;;;1.40;;
4096;SDS011;2062;50.694;7.246;2023-08-01T15:06:38;5.10;;;1.20;;
4096;SDS011;2062;50.694;7.246;2023-08-01T15:09:05;4.50;;;1.27;;
4096;SDS011;2062;50.694;7.246;2023-08-01T15:11:32;4.50;;;1.00;;
4096;SDS011;2062;50.694;7.246;2023-08-01T15:14:00;3.70;;;0.90;;
4096;SDS011;2062;50.694;7.246;2023-08-01T15:16:27;3.63;;;1.20;;